createdAt,value
2019-03-05T00:00:02.516Z,10.78
2019-03-05T00:05:03.051Z,11.40
2019-03-05T00:10:02.463Z,8.98
2019-03-05T00:15:02.819Z,10.95
2019-03-05T00:20:03.269Z,11.25
2019-03-05T00:25:02.674Z,10.35
2019-03-05T00:30:02.998Z,8.78
2019-03-05T00:35:02.432Z,16.00
2019-03-05T00:40:02.878Z,11.68
2019-03-05T00:45:03.364Z,10.53
2019-03-05T00:50:02.733Z,15.85
2019-03-05T00:55:03.088Z,13.98
2019-03-05T01:00:02.893Z,11.45
2019-03-05T01:05:02.846Z,8.78
2019-03-05T01:10:03.299Z,9.88
2019-03-05T01:15:02.701Z,11.12
2019-03-05T01:20:03.048Z,8.30
2019-03-05T01:25:02.464Z,10.15
2019-03-05T01:30:02.809Z,10.38
2019-03-05T01:35:03.170Z,19.45
2019-03-05T01:40:02.560Z,10.05
2019-03-05T01:45:02.914Z,8.63
2019-03-05T01:50:03.360Z,12.63
2019-03-05T01:55:02.671Z,12.43
2019-03-05T02:00:03.018Z,11.08
2019-03-05T02:05:02.427Z,7.03
2019-03-05T02:10:02.005Z,0
2019-03-05T02:15:02.449Z,5.85
2019-03-05T02:20:02.831Z,3.35
2019-03-05T02:25:02.350Z,0
2019-03-05T02:30:02.698Z,5.15
2019-03-05T02:35:03.143Z,3.65
2019-03-05T02:40:02.555Z,4.28
2019-03-05T02:45:02.913Z,4.78
2019-03-05T02:50:03.353Z,5.25
2019-03-05T02:55:02.759Z,4.67
2019-03-05T03:00:03.126Z,5.45
2019-03-05T03:05:02.524Z,5.87
2019-03-05T03:10:02.963Z,10.32
2019-03-05T03:15:03.313Z,4.25
2019-03-05T03:20:02.719Z,5.70
2019-03-05T03:25:03.078Z,9.58
2019-03-05T03:30:02.492Z,3.62
2019-03-05T03:35:02.835Z,5.03
2019-03-05T03:40:06.096Z,6.87
2019-03-05T03:45:02.597Z,7.55
2019-03-05T03:50:02.930Z,6.60
2019-03-05T03:55:03.282Z,10.08
2019-03-05T04:00:02.714Z,5.15
2019-03-05T04:05:03.062Z,10.65
2019-03-05T04:10:02.553Z,6.03
2019-03-05T04:15:02.897Z,7.22
2019-03-05T04:20:03.240Z,4.65
2019-03-05T04:25:02.638Z,6.40
2019-03-05T04:30:03.000Z,5.70
2019-03-05T04:35:02.413Z,5.17
2019-03-05T04:40:03.373Z,5.05
2019-03-05T04:45:02.991Z,4.65
2019-03-05T04:50:02.411Z,6.17
2019-03-05T04:55:02.784Z,7.65
2019-03-05T05:00:03.226Z,6.62
2019-03-05T05:05:02.618Z,5.58
2019-03-05T05:10:03.110Z,4.35
2019-03-05T05:15:02.436Z,5.47
2019-03-05T05:20:02.865Z,6.15
2019-03-05T05:25:03.379Z,4.60
2019-03-05T05:30:02.771Z,8.83
2019-03-05T05:35:03.171Z,6.65
2019-03-05T05:40:04.727Z,8.80
2019-03-05T05:45:03.295Z,4.75
2019-03-05T05:50:02.614Z,3.98
2019-03-05T05:55:02.941Z,5.03
2019-03-05T06:00:03.290Z,5.28
2019-03-05T06:05:02.707Z,5.87
2019-03-05T06:10:03.127Z,4.08
2019-03-05T06:15:02.478Z,6.62
2019-03-05T06:20:02.909Z,4.20
2019-03-05T06:25:03.269Z,5.00
2019-03-05T06:30:02.662Z,4.08
2019-03-05T06:35:03.016Z,4.20
2019-03-05T06:40:02.435Z,4.22
2019-03-05T06:45:02.777Z,4.58
2019-03-05T06:50:03.217Z,4.20
2019-03-05T06:55:02.635Z,4.17
2019-03-05T07:00:02.280Z,0
2019-03-05T07:05:02.712Z,4.08
2019-03-05T07:10:03.147Z,3.90
2019-03-05T07:15:02.575Z,4.97
2019-03-05T07:20:02.908Z,4.17
2019-03-05T07:25:03.249Z,4.33
2019-03-05T07:30:02.665Z,7.03
2019-03-05T07:35:03.119Z,4.22
2019-03-05T07:40:02.526Z,4.83
2019-03-05T07:45:02.873Z,4.12
2019-03-05T07:50:03.215Z,4.20
2019-03-05T07:55:13.152Z,3.90
2019-03-05T08:00:02.391Z,5.20
2019-03-05T08:05:02.718Z,4.00
2019-03-05T08:10:03.148Z,4.37
2019-03-05T08:15:02.720Z,3.92
2019-03-05T08:20:03.044Z,4.15
2019-03-05T08:25:02.422Z,3.87
2019-03-05T08:30:13.509Z,4.50
2019-03-05T08:35:02.801Z,4.70
2019-03-05T08:40:03.232Z,4.58
2019-03-05T08:45:02.563Z,4.05
2019-03-05T08:50:02.929Z,4.40
2019-03-05T08:55:03.391Z,4.58
2019-03-05T09:00:02.785Z,4.90
2019-03-05T09:05:03.202Z,5.20
2019-03-05T09:10:02.618Z,4.45
2019-03-05T09:15:02.966Z,5.20
2019-03-05T09:20:02.381Z,5.20
2019-03-05T09:25:02.723Z,4.50
2019-03-05T09:30:03.068Z,5.40
2019-03-05T09:35:02.481Z,6.67
2019-03-05T09:40:02.932Z,4.95
2019-03-05T09:45:03.278Z,5.10
2019-03-05T09:50:02.593Z,5.80
2019-03-05T09:55:02.934Z,6.00
2019-03-05T10:00:03.377Z,4.53
2019-03-05T10:05:02.784Z,5.35
2019-03-05T10:10:03.184Z,5.35
2019-03-05T10:15:02.559Z,6.22
2019-03-05T10:20:02.995Z,6.10
2019-03-05T10:25:05.860Z,8.73
2019-03-05T10:30:02.855Z,7.28
2019-03-05T10:35:03.301Z,5.30
2019-03-05T10:40:01.895Z,0
2019-03-05T10:45:03.518Z,7.47
2019-03-05T10:50:02.912Z,8.25
2019-03-05T10:55:03.362Z,6.85
2019-03-05T11:00:02.775Z,5.37
2019-03-05T11:05:03.193Z,7.37
2019-03-05T11:10:02.576Z,7.92
2019-03-05T11:15:02.959Z,6.62
2019-03-05T11:20:02.421Z,7.03
2019-03-05T11:25:02.830Z,7.47
2019-03-05T11:30:03.422Z,8.48
2019-03-05T11:35:02.773Z,10.55
2019-03-05T11:40:03.228Z,5.15
2019-03-05T11:45:07.675Z,6.03
2019-03-05T11:50:02.482Z,6.72
2019-03-05T11:55:02.800Z,5.40
2019-03-05T12:00:03.169Z,4.75
2019-03-05T12:05:02.574Z,4.83
2019-03-05T12:10:03.018Z,4.58
2019-03-05T12:15:02.343Z,4.75
2019-03-05T12:20:02.777Z,6.40
2019-03-05T12:25:03.619Z,4.55
2019-03-05T12:30:03.038Z,5.22
2019-03-05T12:35:02.551Z,4.47
2019-03-05T12:40:03.008Z,3.87
2019-03-05T12:45:02.433Z,7.62
2019-03-05T12:50:02.771Z,3.90
2019-03-05T12:55:03.152Z,4.08
2019-03-05T13:00:02.522Z,7.30
2019-03-05T13:05:02.878Z,5.12
2019-03-05T13:10:03.316Z,7.62
2019-03-05T13:15:02.641Z,7.40
2019-03-05T13:20:03.084Z,3.55
2019-03-05T13:25:02.490Z,6.22
2019-03-05T13:30:02.876Z,3.47
2019-03-05T13:35:03.280Z,4.12
2019-03-05T13:40:02.686Z,3.60
2019-03-05T13:45:05.424Z,3.35
2019-03-05T13:50:04.435Z,0
2019-03-05T13:55:02.603Z,3.12
2019-03-05T14:00:02.938Z,2.92
2019-03-05T14:05:03.419Z,3.20
2019-03-05T14:10:02.894Z,2.98
2019-03-05T14:15:03.241Z,5.42
2019-03-05T14:20:02.647Z,3.22
2019-03-05T14:25:03.194Z,4.65
2019-03-05T14:30:07.651Z,4.72
2019-03-05T14:35:03.074Z,2.98
2019-03-05T14:40:22.934Z,3.20
2019-03-05T14:45:02.739Z,3.77
2019-03-05T14:50:03.131Z,5.35
2019-03-05T14:55:02.504Z,3.62
2019-03-05T15:00:02.941Z,3.62
2019-03-05T15:05:03.384Z,3.35
2019-03-05T15:10:02.821Z,3.10
2019-03-05T15:15:03.270Z,3.20
2019-03-05T15:20:02.783Z,4.20
2019-03-05T15:25:04.496Z,6.42
2019-03-05T15:30:02.959Z,3.47
2019-03-05T15:35:02.379Z,4.05
2019-03-05T15:40:02.794Z,3.85
2019-03-05T15:45:03.239Z,3.12
2019-03-05T15:50:02.695Z,3.08
2019-03-05T15:55:03.540Z,5.47
2019-03-05T16:00:02.105Z,0
2019-03-05T16:05:11.390Z,3.67
2019-03-05T16:10:02.678Z,3.33
2019-03-05T16:15:05.111Z,4.50
2019-03-05T16:20:02.952Z,3.42
2019-03-05T16:25:02.632Z,5.10
2019-03-05T16:30:02.219Z,0
2019-03-05T16:35:01.736Z,0
2019-03-05T16:40:05.111Z,4.45
2019-03-05T16:45:02.945Z,3.60
2019-03-05T16:50:02.385Z,6.58
2019-03-05T16:55:02.716Z,4.17
2019-03-05T17:00:03.084Z,3.50
2019-03-05T17:05:02.446Z,3.80
2019-03-05T17:10:02.874Z,3.67
2019-03-05T17:15:03.220Z,5.03
2019-03-05T17:20:02.869Z,4.53
2019-03-05T17:25:03.330Z,3.98
2019-03-05T17:30:02.690Z,5.58
2019-03-05T17:35:03.029Z,4.08
2019-03-05T17:40:02.412Z,3.42
2019-03-05T17:45:02.800Z,3.67
2019-03-05T17:50:03.247Z,4.67
2019-03-05T17:55:02.565Z,3.95
2019-03-05T18:00:03.009Z,3.58
2019-03-05T18:05:02.637Z,3.87
2019-03-05T18:10:03.094Z,4.22
2019-03-05T18:15:02.420Z,3.90
2019-03-05T18:20:02.828Z,5.45
2019-03-05T18:25:03.292Z,5.33
2019-03-05T18:30:02.698Z,5.55
2019-03-05T18:35:03.029Z,5.97
2019-03-05T18:40:02.420Z,4.20
2019-03-05T18:45:02.805Z,4.97
2019-03-05T18:50:03.140Z,3.80
2019-03-05T18:55:02.547Z,3.60
2019-03-05T19:00:02.918Z,3.83
2019-03-05T19:05:03.341Z,6.92
2019-03-05T19:10:02.759Z,4.62
2019-03-05T19:15:03.107Z,5.17
2019-03-05T19:20:02.465Z,4.42
2019-03-05T19:25:03.187Z,4.92
2019-03-05T19:30:02.582Z,4.00
2019-03-05T19:35:02.935Z,3.98
2019-03-05T19:40:02.345Z,7.10
2019-03-05T19:45:02.693Z,5.60
2019-03-05T19:50:03.140Z,3.92
2019-03-05T19:55:02.478Z,3.90
2019-03-05T20:00:03.100Z,4.92
2019-03-05T20:05:02.512Z,3.95
2019-03-05T20:10:02.973Z,8.10
2019-03-05T20:15:03.318Z,3.52
2019-03-05T20:20:02.714Z,3.50
2019-03-05T20:25:03.074Z,3.33
2019-03-05T20:30:02.484Z,4.65
2019-03-05T20:35:02.954Z,3.67
2019-03-05T20:40:02.941Z,7.47
2019-03-05T20:45:02.367Z,3.62
2019-03-05T20:50:02.727Z,5.08
2019-03-05T20:55:03.183Z,5.65
2019-03-05T21:00:02.523Z,4.85
2019-03-05T21:05:02.983Z,3.47
2019-03-05T21:10:02.650Z,3.60
2019-03-05T21:15:03.009Z,3.05
2019-03-05T21:20:02.410Z,3.10
2019-03-05T21:25:01.950Z,0
2019-03-05T21:30:03.297Z,3.72
2019-03-05T21:35:02.715Z,4.22
2019-03-05T21:40:03.156Z,3.80
2019-03-05T21:45:04.046Z,6.45
2019-03-05T21:50:02.546Z,4.45
2019-03-05T21:55:03.260Z,4.58
2019-03-05T22:00:02.709Z,3.30
2019-03-05T22:05:03.125Z,3.30
2019-03-05T22:10:02.536Z,3.62
2019-03-05T22:15:02.921Z,7.05
2019-03-05T22:20:03.369Z,3.98
2019-03-05T22:25:02.734Z,3.65
2019-03-05T22:30:03.334Z,3.40
2019-03-05T22:35:02.703Z,3.62
2019-03-05T22:40:03.179Z,4.65
2019-03-05T22:45:02.566Z,7.33
2019-03-05T22:50:02.916Z,5.45
2019-03-05T22:55:03.359Z,3.52
2019-03-05T23:00:02.737Z,3.77
2019-03-05T23:05:03.151Z,3.20
2019-03-05T23:10:02.630Z,5.25
2019-03-05T23:15:02.958Z,3.70
2019-03-05T23:20:02.431Z,3.30
2019-03-05T23:25:02.843Z,3.27
2019-03-05T23:30:02.390Z,0
2019-03-05T23:35:02.813Z,4.55
2019-03-05T23:40:03.243Z,3.55
2019-03-05T23:45:02.667Z,3.45
2019-03-05T23:50:03.019Z,4.05
2019-03-05T23:55:02.422Z,5.60
